sensor_id;sensor_type;location;lat;lon;timestamp;temperature;humidity
10155;DHT22;5118;48.570;7.916;2023-05-10T00:00:42;13.70;99.90
10155;DHT22;5118;48.570;7.916;2023-05-10T00:03:11;13.60;99.90
10155;DHT22;5118;48.570;7.916;2023-05-10T00:05:39;13.60;99.90
10155;DHT22;5118;48.570;7.916;2023-05-10T00:08:08;13.60;99.90
10155;DHT22;5118;48.570;7.916;2023-05-10T00:10:38;13.60;99.90
10155;DHT22;5118;48.570;7.916;2023-05-10T00:13:08;13.60;99.90
10155;DHT22;5118;48.570;7.916;2023-05-10T00:15:36;13.60;99.90
10155;DHT22;5118;48.570;7.916;2023-05-10T00:18:05;13.60;99.90
10155;DHT22;5118;48.570;7.916;2023-05-10T00:20:33;13.60;99.90
10155;DHT22;5118;48.570;7.916;2023-05-10T00:23:02;13.60;99.90
10155;DHT22;5118;48.570;7.916;2023-05-10T00:25:30;13.70;99.90
10155;DHT22;5118;48.570;7.916;2023-05-10T00:28:00;13.70;99.90
10155;DHT22;5118;48.570;7.916;2023-05-10T00:30:29;13.70;99.90
10155;DHT22;5118;48.570;7.916;2023-05-10T00:32:58;13.70;99.90
10155;DHT22;5118;48.570;7.916;2023-05-10T00:35:27;13.80;99.90
10155;DHT22;5118;48.570;7.916;2023-05-10T00:37:56;13.80;99.90
10155;DHT22;5118;48.570;7.916;2023-05-10T00:40:24;13.80;99.90
10155;DHT22;5118;48.570;7.916;2023-05-10T00:42:57;13.80;99.90
10155;DHT22;5118;48.570;7.916;2023-05-10T00:45:28;13.80;99.90
10155;DHT22;5118;48.570;7.916;2023-05-10T00:47:56;13.70;99.90
10155;DHT22;5118;48.570;7.916;2023-05-10T00:50:27;13.70;99.90
10155;DHT22;5118;48.570;7.916;2023-05-10T00:52:55;13.70;99.90
10155;DHT22;5118;48.570;7.916;2023-05-10T00:55:24;13.70;99.90
10155;DHT22;5118;48.570;7.916;2023-05-10T00:57:53;13.70;99.90
10155;DHT22;5118;48.570;7.916;2023-05-10T01:00:22;13.70;99.90
10155;DHT22;5118;48.570;7.916;2023-05-10T01:02:53;13.70;99.90
10155;DHT22;5118;48.570;7.916;2023-05-10T01:05:22;13.70;99.90
10155;DHT22;5118;48.570;7.916;2023-05-10T01:07:51;13.70;99.90
10155;DHT22;5118;48.570;7.916;2023-05-10T01:10:19;13.80;99.90
10155;DHT22;5118;48.570;7.916;2023-05-10T01:12:48;13.70;99.90
10155;DHT22;5118;48.570;7.916;2023-05-10T01:15:17;13.70;99.90
10155;DHT22;5118;48.570;7.916;2023-05-10T01:17:48;13.70;99.90
10155;DHT22;5118;48.570;7.916;2023-05-10T01:20:18;13.70;99.90
10155;DHT22;5118;48.570;7.916;2023-05-10T01:23:09;13.70;99.90
10155;DHT22;5118;48.570;7.916;2023-05-10T01:28:58;13.70;99.90
10155;DHT22;5118;48.570;7.916;2023-05-10T01:31:50;13.70;99.90
10155;DHT22;5118;48.570;7.916;2023-05-10T01:34:23;13.70;99.90
10155;DHT22;5118;48.570;7.916;2023-05-10T01:36:58;13.70;99.90
10155;DHT22;5118;48.570;7.916;2023-05-10T01:39:39;13.70;99.90
10155;DHT22;5118;48.570;7.916;2023-05-10T01:42:16;13.60;99.90
10155;DHT22;5118;48.570;7.916;2023-05-10T01:44:52;13.70;99.90
10155;DHT22;5118;48.570;7.916;2023-05-10T01:47:28;13.70;99.90
10155;DHT22;5118;48.570;7.916;2023-05-10T01:50:02;13.70;99.90
10155;DHT22;5118;48.570;7.916;2023-05-10T01:52:33;13.70;99.90
10155;DHT22;5118;48.570;7.916;2023-05-10T01:55:07;13.70;99.90
10155;DHT22;5118;48.570;7.916;2023-05-10T01:57:39;13.70;99.90
10155;DHT22;5118;48.570;7.916;2023-05-10T02:00:10;13.70;99.90
10155;DHT22;5118;48.570;7.916;2023-05-10T02:02:45;13.70;99.90
10155;DHT22;5118;48.570;7.916;2023-05-10T02:05:16;13.70;99.90
10155;DHT22;5118;48.570;7.916;2023-05-10T02:07:47;13.70;99.90
10155;DHT22;5118;48.570;7.916;2023-05-10T02:10:18;13.60;99.90
10155;DHT22;5118;48.570;7.916;2023-05-10T02:12:48;13.50;99.90
10155;DHT22;5118;48.570;7.916;2023-05-10T02:15:22;13.50;99.90
10155;DHT22;5118;48.570;7.916;2023-05-10T02:17:55;13.40;99.90
10155;DHT22;5118;48.570;7.916;2023-05-10T02:20:24;13.40;99.90
10155;DHT22;5118;48.570;7.916;2023-05-10T02:22:55;13.40;99.90
10155;DHT22;5118;48.570;7.916;2023-05-10T02:25:26;13.40;99.90
10155;DHT22;5118;48.570;7.916;2023-05-10T02:27:57;13.40;99.90
10155;DHT22;5118;48.570;7.916;2023-05-10T02:30:26;13.40;99.90
10155;DHT22;5118;48.570;7.916;2023-05-10T02:32:57;13.40;99.90
10155;DHT22;5118;48.570;7.916;2023-05-10T02:35:26;13.40;99.90
10155;DHT22;5118;48.570;7.916;2023-05-10T02:37:57;13.40;99.90
10155;DHT22;5118;48.570;7.916;2023-05-10T02:40:27;13.40;99.90
10155;DHT22;5118;48.570;7.916;2023-05-10T02:42:57;13.40;99.90
10155;DHT22;5118;48.570;7.916;2023-05-10T02:45:30;13.40;99.90
10155;DHT22;5118;48.570;7.916;2023-05-10T02:48:00;13.40;99.90
10155;DHT22;5118;48.570;7.916;2023-05-10T02:50:33;13.40;99.90
10155;DHT22;5118;48.570;7.916;2023-05-10T02:53:06;13.40;99.90
10155;DHT22;5118;48.570;7.916;2023-05-10T02:55:37;13.40;99.90
10155;DHT22;5118;48.570;7.916;2023-05-10T02:58:06;13.40;99.90
10155;DHT22;5118;48.570;7.916;2023-05-10T03:00:35;13.40;99.90
10155;DHT22;5118;48.570;7.916;2023-05-10T03:03:05;13.30;99.90
10155;DHT22;5118;48.570;7.916;2023-05-10T03:05:35;13.30;99.90
10155;DHT22;5118;48.570;7.916;2023-05-10T03:08:04;13.30;99.90
10155;DHT22;5118;48.570;7.916;2023-05-10T03:10:38;13.30;99.90
10155;DHT22;5118;48.570;7.916;2023-05-10T03:13:15;13.30;99.90
10155;DHT22;5118;48.570;7.916;2023-05-10T03:15:55;13.30;99.90
10155;DHT22;5118;48.570;7.916;2023-05-10T03:18:33;13.30;99.90
10155;DHT22;5118;48.570;7.916;2023-05-10T03:21:07;13.40;99.90
10155;DHT22;5118;48.570;7.916;2023-05-10T03:23:43;13.40;99.90
10155;DHT22;5118;48.570;7.916;2023-05-10T03:26:17;13.40;99.90
10155;DHT22;5118;48.570;7.916;2023-05-10T03:28:47;13.40;99.90
10155;DHT22;5118;48.570;7.916;2023-05-10T03:31:17;13.40;99.90
10155;DHT22;5118;48.570;7.916;2023-05-10T03:33:48;13.40;99.90
10155;DHT22;5118;48.570;7.916;2023-05-10T03:36:22;13.40;99.90
10155;DHT22;5118;48.570;7.916;2023-05-10T03:38:51;13.40;99.90
10155;DHT22;5118;48.570;7.916;2023-05-10T03:41:20;13.40;99.90
10155;DHT22;5118;48.570;7.916;2023-05-10T03:43:48;13.40;99.90
10155;DHT22;5118;48.570;7.916;2023-05-10T03:46:17;13.40;99.90
10155;DHT22;5118;48.570;7.916;2023-05-10T03:48:47;13.40;99.90
10155;DHT22;5118;48.570;7.916;2023-05-10T03:51:16;13.40;99.90
10155;DHT22;5118;48.570;7.916;2023-05-10T03:53:44;13.40;99.90
10155;DHT22;5118;48.570;7.916;2023-05-10T03:56:13;13.40;99.90
10155;DHT22;5118;48.570;7.916;2023-05-10T03:58:42;13.40;99.90
10155;DHT22;5118;48.570;7.916;2023-05-10T04:01:11;13.40;99.90
10155;DHT22;5118;48.570;7.916;2023-05-10T04:03:39;13.40;99.90
10155;DHT22;5118;48.570;7.916;2023-05-10T04:06:10;13.40;99.90
10155;DHT22;5118;48.570;7.916;2023-05-10T04:08:39;13.30;99.90
10155;DHT22;5118;48.570;7.916;2023-05-10T04:11:08;13.30;99.90
10155;DHT22;5118;48.570;7.916;2023-05-10T04:13:37;13.30;99.90
10155;DHT22;5118;48.570;7.916;2023-05-10T04:16:06;13.20;99.90
10155;DHT22;5118;48.570;7.916;2023-05-10T04:18:35;13.20;99.90
10155;DHT22;5118;48.570;7.916;2023-05-10T04:21:03;13.20;99.90
10155;DHT22;5118;48.570;7.916;2023-05-10T04:23:33;13.30;99.90
10155;DHT22;5118;48.570;7.916;2023-05-10T04:26:02;13.30;99.90
10155;DHT22;5118;48.570;7.916;2023-05-10T04:28:31;13.30;99.90
10155;DHT22;5118;48.570;7.916;2023-05-10T04:31:03;13.30;99.90
10155;DHT22;5118;48.570;7.916;2023-05-10T04:33:32;13.30;99.90
10155;DHT22;5118;48.570;7.916;2023-05-10T04:36:01;13.30;99.90
10155;DHT22;5118;48.570;7.916;2023-05-10T04:38:30;13.30;99.90
10155;DHT22;5118;48.570;7.916;2023-05-10T04:41:07;13.30;99.90
10155;DHT22;5118;48.570;7.916;2023-05-10T04:43:35;13.30;99.90
10155;DHT22;5118;48.570;7.916;2023-05-10T04:46:05;13.40;99.90
10155;DHT22;5118;48.570;7.916;2023-05-10T04:48:34;13.40;99.90
10155;DHT22;5118;48.570;7.916;2023-05-10T04:51:03;13.40;99.90
10155;DHT22;5118;48.570;7.916;2023-05-10T04:53:33;13.40;99.90
10155;DHT22;5118;48.570;7.916;2023-05-10T04:56:06;13.40;99.90
10155;DHT22;5118;48.570;7.916;2023-05-10T04:58:34;13.40;99.90
10155;DHT22;5118;48.570;7.916;2023-05-10T05:01:06;13.40;99.90
10155;DHT22;5118;48.570;7.916;2023-05-10T05:03:35;13.40;99.90
10155;DHT22;5118;48.570;7.916;2023-05-10T05:06:05;13.40;99.90
10155;DHT22;5118;48.570;7.916;2023-05-10T05:08:34;13.40;99.90
10155;DHT22;5118;48.570;7.916;2023-05-10T05:11:06;13.50;99.90
10155;DHT22;5118;48.570;7.916;2023-05-10T05:13:35;13.40;99.90
10155;DHT22;5118;48.570;7.916;2023-05-10T05:16:05;13.40;99.90
10155;DHT22;5118;48.570;7.916;2023-05-10T05:18:34;13.30;99.90
10155;DHT22;5118;48.570;7.916;2023-05-10T05:21:02;13.30;99.90
10155;DHT22;5118;48.570;7.916;2023-05-10T05:23:31;13.30;99.90
10155;DHT22;5118;48.570;7.916;2023-05-10T05:25:59;13.30;99.90
10155;DHT22;5118;48.570;7.916;2023-05-10T05:28:29;13.20;99.90
10155;DHT22;5118;48.570;7.916;2023-05-10T05:31:00;13.20;99.90
10155;DHT22;5118;48.570;7.916;2023-05-10T05:33:28;13.30;99.90
10155;DHT22;5118;48.570;7.916;2023-05-10T05:35:57;13.30;99.90
10155;DHT22;5118;48.570;7.916;2023-05-10T05:38:28;13.30;99.90
10155;DHT22;5118;48.570;7.916;2023-05-10T05:40:57;13.30;99.90
10155;DHT22;5118;48.570;7.916;2023-05-10T05:43:25;13.30;99.90
10155;DHT22;5118;48.570;7.916;2023-05-10T05:45:55;13.30;99.90
10155;DHT22;5118;48.570;7.916;2023-05-10T05:48:25;13.40;99.90
10155;DHT22;5118;48.570;7.916;2023-05-10T05:50:54;13.40;99.90
10155;DHT22;5118;48.570;7.916;2023-05-10T05:53:26;13.40;99.90
10155;DHT22;5118;48.570;7.916;2023-05-10T05:55:57;13.40;99.90
10155;DHT22;5118;48.570;7.916;2023-05-10T05:58:26;13.40;99.90
10155;DHT22;5118;48.570;7.916;2023-05-10T06:00:59;13.50;99.90
10155;DHT22;5118;48.570;7.916;2023-05-10T06:03:27;13.60;99.90
10155;DHT22;5118;48.570;7.916;2023-05-10T06:05:56;13.60;99.90
10155;DHT22;5118;48.570;7.916;2023-05-10T06:08:25;13.60;99.90
10155;DHT22;5118;48.570;7.916;2023-05-10T06:10:53;13.70;99.90
10155;DHT22;5118;48.570;7.916;2023-05-10T06:13:22;13.80;99.90
10155;DHT22;5118;48.570;7.916;2023-05-10T06:15:50;13.80;99.90
10155;DHT22;5118;48.570;7.916;2023-05-10T06:18:20;13.90;99.90
10155;DHT22;5118;48.570;7.916;2023-05-10T06:20:49;13.90;99.90
10155;DHT22;5118;48.570;7.916;2023-05-10T06:23:18;14.00;99.90
10155;DHT22;5118;48.570;7.916;2023-05-10T06:25:47;14.00;99.90
10155;DHT22;5118;48.570;7.916;2023-05-10T06:28:15;14.00;99.90
10155;DHT22;5118;48.570;7.916;2023-05-10T06:30:44;14.00;99.90
10155;DHT22;5118;48.570;7.916;2023-05-10T06:33:13;14.00;99.90
10155;DHT22;5118;48.570;7.916;2023-05-10T06:35:44;14.00;99.90
10155;DHT22;5118;48.570;7.916;2023-05-10T06:38:13;14.00;99.90
10155;DHT22;5118;48.570;7.916;2023-05-10T06:40:42;13.90;99.90
10155;DHT22;5118;48.570;7.916;2023-05-10T06:43:11;13.90;99.90
10155;DHT22;5118;48.570;7.916;2023-05-10T06:45:41;13.80;99.90
10155;DHT22;5118;48.570;7.916;2023-05-10T06:48:09;13.90;99.90
10155;DHT22;5118;48.570;7.916;2023-05-10T06:50:38;13.80;99.90
10155;DHT22;5118;48.570;7.916;2023-05-10T06:53:08;13.80;99.90
10155;DHT22;5118;48.570;7.916;2023-05-10T06:55:37;13.80;99.90
10155;DHT22;5118;48.570;7.916;2023-05-10T06:58:06;13.80;99.90
10155;DHT22;5118;48.570;7.916;2023-05-10T07:00:35;13.80;99.90
10155;DHT22;5118;48.570;7.916;2023-05-10T07:03:06;13.80;99.90
10155;DHT22;5118;48.570;7.916;2023-05-10T07:05:35;13.80;99.90
10155;DHT22;5118;48.570;7.916;2023-05-10T07:08:04;13.90;99.90
10155;DHT22;5118;48.570;7.916;2023-05-10T07:10:34;13.90;99.90
10155;DHT22;5118;48.570;7.916;2023-05-10T07:13:03;14.00;99.90
10155;DHT22;5118;48.570;7.916;2023-05-10T07:15:31;14.10;99.90
10155;DHT22;5118;48.570;7.916;2023-05-10T07:18:00;14.20;99.90
10155;DHT22;5118;48.570;7.916;2023-05-10T07:20:31;14.30;99.90
10155;DHT22;5118;48.570;7.916;2023-05-10T07:22:59;14.50;99.90
10155;DHT22;5118;48.570;7.916;2023-05-10T07:25:28;14.60;99.90
10155;DHT22;5118;48.570;7.916;2023-05-10T07:28:01;14.80;99.90
10155;DHT22;5118;48.570;7.916;2023-05-10T07:30:31;14.90;99.90
10155;DHT22;5118;48.570;7.916;2023-05-10T07:33:00;15.00;99.90
10155;DHT22;5118;48.570;7.916;2023-05-10T07:35:28;15.10;99.90
10155;DHT22;5118;48.570;7.916;2023-05-10T07:37:57;15.20;99.90
10155;DHT22;5118;48.570;7.916;2023-05-10T07:40:25;15.30;99.90
10155;DHT22;5118;48.570;7.916;2023-05-10T07:42:54;15.40;99.90
10155;DHT22;5118;48.570;7.916;2023-05-10T07:45:24;15.60;99.90
10155;DHT22;5118;48.570;7.916;2023-05-10T07:47:53;15.70;99.90
10155;DHT22;5118;48.570;7.916;2023-05-10T07:50:21;15.80;99.90
10155;DHT22;5118;48.570;7.916;2023-05-10T07:52:50;15.90;99.90
10155;DHT22;5118;48.570;7.916;2023-05-10T07:55:19;16.00;99.90
10155;DHT22;5118;48.570;7.916;2023-05-10T07:57:48;15.90;99.90
10155;DHT22;5118;48.570;7.916;2023-05-10T08:00:18;15.60;99.90
10155;DHT22;5118;48.570;7.916;2023-05-10T08:02:48;15.60;99.90
10155;DHT22;5118;48.570;7.916;2023-05-10T08:05:17;15.50;99.90
10155;DHT22;5118;48.570;7.916;2023-05-10T08:07:46;15.50;99.90
10155;DHT22;5118;48.570;7.916;2023-05-10T08:10:15;15.50;99.90
10155;DHT22;5118;48.570;7.916;2023-05-10T08:12:44;15.50;99.90
10155;DHT22;5118;48.570;7.916;2023-05-10T08:15:12;15.60;99.90
10155;DHT22;5118;48.570;7.916;2023-05-10T08:17:42;15.70;99.90
10155;DHT22;5118;48.570;7.916;2023-05-10T08:20:12;15.80;99.90
10155;DHT22;5118;48.570;7.916;2023-05-10T08:22:43;15.80;99.90
10155;DHT22;5118;48.570;7.916;2023-05-10T08:25:13;15.60;99.90
10155;DHT22;5118;48.570;7.916;2023-05-10T08:27:42;15.30;99.90
10155;DHT22;5118;48.570;7.916;2023-05-10T08:30:12;14.90;99.90
10155;DHT22;5118;48.570;7.916;2023-05-10T08:32:41;14.50;99.90
10155;DHT22;5118;48.570;7.916;2023-05-10T08:35:11;14.30;99.90
10155;DHT22;5118;48.570;7.916;2023-05-10T08:37:40;14.10;99.90
10155;DHT22;5118;48.570;7.916;2023-05-10T08:40:11;14.10;99.90
10155;DHT22;5118;48.570;7.916;2023-05-10T08:42:43;14.10;99.90
10155;DHT22;5118;48.570;7.916;2023-05-10T08:45:14;14.00;99.90
10155;DHT22;5118;48.570;7.916;2023-05-10T08:47:44;14.00;99.90
10155;DHT22;5118;48.570;7.916;2023-05-10T08:50:15;14.00;99.90
10155;DHT22;5118;48.570;7.916;2023-05-10T08:52:45;14.10;99.90
10155;DHT22;5118;48.570;7.916;2023-05-10T08:55:15;14.20;99.90
10155;DHT22;5118;48.570;7.916;2023-05-10T08:57:45;14.30;99.90
10155;DHT22;5118;48.570;7.916;2023-05-10T09:00:15;14.50;99.90
10155;DHT22;5118;48.570;7.916;2023-05-10T09:02:45;14.50;99.90
10155;DHT22;5118;48.570;7.916;2023-05-10T09:05:15;14.70;99.90
10155;DHT22;5118;48.570;7.916;2023-05-10T09:07:45;14.90;99.90
10155;DHT22;5118;48.570;7.916;2023-05-10T09:10:14;15.10;99.90
10155;DHT22;5118;48.570;7.916;2023-05-10T09:12:47;15.20;99.90
10155;DHT22;5118;48.570;7.916;2023-05-10T09:15:16;15.30;99.90
10155;DHT22;5118;48.570;7.916;2023-05-10T09:17:47;15.40;99.90
10155;DHT22;5118;48.570;7.916;2023-05-10T09:20:18;15.50;99.90
10155;DHT22;5118;48.570;7.916;2023-05-10T09:22:47;15.60;99.90
10155;DHT22;5118;48.570;7.916;2023-05-10T09:25:17;15.80;99.90
10155;DHT22;5118;48.570;7.916;2023-05-10T09:27:47;16.00;99.90
10155;DHT22;5118;48.570;7.916;2023-05-10T09:30:17;15.90;99.90
10155;DHT22;5118;48.570;7.916;2023-05-10T09:32:47;15.70;99.90
10155;DHT22;5118;48.570;7.916;2023-05-10T09:35:20;15.60;99.90
10155;DHT22;5118;48.570;7.916;2023-05-10T09:37:50;15.50;99.90
10155;DHT22;5118;48.570;7.916;2023-05-10T09:40:20;15.40;99.90
10155;DHT22;5118;48.570;7.916;2023-05-10T09:42:53;15.40;99.90
10155;DHT22;5118;48.570;7.916;2023-05-10T09:45:23;15.50;99.90
10155;DHT22;5118;48.570;7.916;2023-05-10T09:47:53;15.80;99.90
10155;DHT22;5118;48.570;7.916;2023-05-10T09:50:23;16.10;99.90
10155;DHT22;5118;48.570;7.916;2023-05-10T09:52:53;16.40;99.90
10155;DHT22;5118;48.570;7.916;2023-05-10T09:55:26;16.40;99.90
10155;DHT22;5118;48.570;7.916;2023-05-10T09:57:59;16.60;99.90
10155;DHT22;5118;48.570;7.916;2023-05-10T10:00:29;16.80;99.90
10155;DHT22;5118;48.570;7.916;2023-05-10T10:03:13;17.00;99.90
10155;DHT22;5118;48.570;7.916;2023-05-10T10:05:44;17.20;99.90
10155;DHT22;5118;48.570;7.916;2023-05-10T10:08:14;17.30;99.90
10155;DHT22;5118;48.570;7.916;2023-05-10T10:10:43;17.40;99.90
10155;DHT22;5118;48.570;7.916;2023-05-10T10:13:13;17.50;99.90
10155;DHT22;5118;48.570;7.916;2023-05-10T10:15:43;17.40;99.90
10155;DHT22;5118;48.570;7.916;2023-05-10T10:18:13;17.30;99.90
10155;DHT22;5118;48.570;7.916;2023-05-10T10:20:44;17.20;99.90
10155;DHT22;5118;48.570;7.916;2023-05-10T10:23:14;17.10;99.90
10155;DHT22;5118;48.570;7.916;2023-05-10T10:25:44;17.10;99.90
10155;DHT22;5118;48.570;7.916;2023-05-10T10:28:23;17.10;99.90
10155;DHT22;5118;48.570;7.916;2023-05-10T10:30:55;17.10;99.90
10155;DHT22;5118;48.570;7.916;2023-05-10T10:33:39;17.20;99.90
10155;DHT22;5118;48.570;7.916;2023-05-10T10:36:10;17.30;99.90
10155;DHT22;5118;48.570;7.916;2023-05-10T10:39:00;17.30;99.90
10155;DHT22;5118;48.570;7.916;2023-05-10T10:41:32;17.30;99.90
10155;DHT22;5118;48.570;7.916;2023-05-10T10:44:27;17.30;99.90
10155;DHT22;5118;48.570;7.916;2023-05-10T10:47:04;17.20;99.90
10155;DHT22;5118;48.570;7.916;2023-05-10T10:49:42;17.10;99.90
10155;DHT22;5118;48.570;7.916;2023-05-10T10:52:34;16.90;99.90
10155;DHT22;5118;48.570;7.916;2023-05-10T10:55:05;16.80;99.90
10155;DHT22;5118;48.570;7.916;2023-05-10T10:57:49;16.70;99.90
10155;DHT22;5118;48.570;7.916;2023-05-10T11:00:24;16.80;99.90
10155;DHT22;5118;48.570;7.916;2023-05-10T11:02:55;16.80;99.90
10155;DHT22;5118;48.570;7.916;2023-05-10T11:05:46;16.90;99.90
10155;DHT22;5118;48.570;7.916;2023-05-10T11:08:18;17.00;99.90
10155;DHT22;5118;48.570;7.916;2023-05-10T11:10:50;17.30;99.90
10155;DHT22;5118;48.570;7.916;2023-05-10T11:13:38;18.00;99.90
10155;DHT22;5118;48.570;7.916;2023-05-10T11:16:12;19.20;99.90
10155;DHT22;5118;48.570;7.916;2023-05-10T11:18:41;20.30;99.90
10155;DHT22;5118;48.570;7.916;2023-05-10T11:21:20;21.10;99.90
10155;DHT22;5118;48.570;7.916;2023-05-10T11:23:52;21.40;99.90
10155;DHT22;5118;48.570;7.916;2023-05-10T11:26:30;21.10;99.90
10155;DHT22;5118;48.570;7.916;2023-05-10T11:28:58;20.70;99.90
10155;DHT22;5118;48.570;7.916;2023-05-10T11:31:28;20.20;99.90
10155;DHT22;5118;48.570;7.916;2023-05-10T11:33:58;20.00;99.90
10155;DHT22;5118;48.570;7.916;2023-05-10T11:36:32;20.10;99.90
10155;DHT22;5118;48.570;7.916;2023-05-10T11:39:03;21.10;99.90
10155;DHT22;5118;48.570;7.916;2023-05-10T11:41:31;22.40;99.90
10155;DHT22;5118;48.570;7.916;2023-05-10T11:44:00;23.00;99.90
10155;DHT22;5118;48.570;7.916;2023-05-10T11:46:29;23.10;99.90
10155;DHT22;5118;48.570;7.916;2023-05-10T11:48:59;23.00;99.90
10155;DHT22;5118;48.570;7.916;2023-05-10T11:51:33;22.50;99.10
10155;DHT22;5118;48.570;7.916;2023-05-10T11:54:07;21.90;97.70
10155;DHT22;5118;48.570;7.916;2023-05-10T11:56:37;21.70;95.80
10155;DHT22;5118;48.570;7.916;2023-05-10T11:59:05;21.70;98.10
10155;DHT22;5118;48.570;7.916;2023-05-10T12:01:35;21.60;98.20
10155;DHT22;5118;48.570;7.916;2023-05-10T12:04:04;21.20;97.70
10155;DHT22;5118;48.570;7.916;2023-05-10T12:06:39;20.80;97.10
10155;DHT22;5118;48.570;7.916;2023-05-10T12:09:10;20.20;95.80
10155;DHT22;5118;48.570;7.916;2023-05-10T12:11:40;19.70;97.60
10155;DHT22;5118;48.570;7.916;2023-05-10T12:14:11;19.20;97.60
10155;DHT22;5118;48.570;7.916;2023-05-10T12:16:39;18.70;99.10
10155;DHT22;5118;48.570;7.916;2023-05-10T12:19:08;18.40;99.70
10155;DHT22;5118;48.570;7.916;2023-05-10T12:21:37;18.40;99.90
10155;DHT22;5118;48.570;7.916;2023-05-10T12:24:10;18.50;99.90
10155;DHT22;5118;48.570;7.916;2023-05-10T12:26:38;18.60;99.90
10155;DHT22;5118;48.570;7.916;2023-05-10T12:29:14;19.40;99.90
10155;DHT22;5118;48.570;7.916;2023-05-10T12:31:54;20.70;99.90
10155;DHT22;5118;48.570;7.916;2023-05-10T12:34:25;21.50;98.70
10155;DHT22;5118;48.570;7.916;2023-05-10T12:36:54;21.80;97.80
10155;DHT22;5118;48.570;7.916;2023-05-10T12:39:24;21.80;97.70
10155;DHT22;5118;48.570;7.916;2023-05-10T12:41:53;21.60;97.80
10155;DHT22;5118;48.570;7.916;2023-05-10T12:44:21;21.60;97.90
10155;DHT22;5118;48.570;7.916;2023-05-10T12:46:50;21.30;96.70
10155;DHT22;5118;48.570;7.916;2023-05-10T12:49:18;21.30;96.80
10155;DHT22;5118;48.570;7.916;2023-05-10T12:51:47;21.40;98.00
10155;DHT22;5118;48.570;7.916;2023-05-10T12:54:16;21.90;98.10
10155;DHT22;5118;48.570;7.916;2023-05-10T12:56:46;22.50;98.50
10155;DHT22;5118;48.570;7.916;2023-05-10T12:59:14;23.50;97.40
10155;DHT22;5118;48.570;7.916;2023-05-10T13:01:43;23.50;95.10
10155;DHT22;5118;48.570;7.916;2023-05-10T13:04:12;22.90;94.20
10155;DHT22;5118;48.570;7.916;2023-05-10T13:06:40;22.60;94.30
10155;DHT22;5118;48.570;7.916;2023-05-10T13:09:09;22.20;94.40
10155;DHT22;5118;48.570;7.916;2023-05-10T13:11:38;22.10;94.60
10155;DHT22;5118;48.570;7.916;2023-05-10T13:14:08;22.20;94.70
10155;DHT22;5118;48.570;7.916;2023-05-10T13:16:37;22.40;95.20
10155;DHT22;5118;48.570;7.916;2023-05-10T13:19:06;22.90;94.70
10155;DHT22;5118;48.570;7.916;2023-05-10T13:21:40;23.20;93.10
10155;DHT22;5118;48.570;7.916;2023-05-10T13:24:09;23.70;93.60
10155;DHT22;5118;48.570;7.916;2023-05-10T13:26:38;24.00;92.70
10155;DHT22;5118;48.570;7.916;2023-05-10T13:29:08;24.50;92.40
10155;DHT22;5118;48.570;7.916;2023-05-10T13:31:37;25.70;91.70
10155;DHT22;5118;48.570;7.916;2023-05-10T13:34:05;26.70;90.00
10155;DHT22;5118;48.570;7.916;2023-05-10T13:36:34;27.10;85.50
10155;DHT22;5118;48.570;7.916;2023-05-10T13:39:03;27.00;81.70
10155;DHT22;5118;48.570;7.916;2023-05-10T13:41:32;27.00;79.60
10155;DHT22;5118;48.570;7.916;2023-05-10T13:44:01;27.20;77.50
10155;DHT22;5118;48.570;7.916;2023-05-10T13:46:31;27.30;76.70
10155;DHT22;5118;48.570;7.916;2023-05-10T13:49:00;27.20;72.90
10155;DHT22;5118;48.570;7.916;2023-05-10T13:51:29;27.20;73.20
10155;DHT22;5118;48.570;7.916;2023-05-10T13:53:58;27.60;72.50
10155;DHT22;5118;48.570;7.916;2023-05-10T13:56:27;27.50;70.90
10155;DHT22;5118;48.570;7.916;2023-05-10T13:58:56;26.90;70.30
10155;DHT22;5118;48.570;7.916;2023-05-10T14:01:25;26.00;69.80
10155;DHT22;5118;48.570;7.916;2023-05-10T14:03:55;25.10;71.10
10155;DHT22;5118;48.570;7.916;2023-05-10T14:06:24;24.10;71.60
10155;DHT22;5118;48.570;7.916;2023-05-10T14:08:54;22.10;92.30
10155;DHT22;5118;48.570;7.916;2023-05-10T14:11:22;19.10;99.90
10155;DHT22;5118;48.570;7.916;2023-05-10T14:13:51;17.70;99.90
10155;DHT22;5118;48.570;7.916;2023-05-10T14:16:20;16.20;99.90
10155;DHT22;5118;48.570;7.916;2023-05-10T14:18:49;15.40;99.90
10155;DHT22;5118;48.570;7.916;2023-05-10T14:21:19;15.70;99.90
10155;DHT22;5118;48.570;7.916;2023-05-10T14:23:47;16.80;99.90
10155;DHT22;5118;48.570;7.916;2023-05-10T14:26:16;18.10;99.90
10155;DHT22;5118;48.570;7.916;2023-05-10T14:28:44;19.70;99.90
10155;DHT22;5118;48.570;7.916;2023-05-10T14:31:13;20.90;99.90
10155;DHT22;5118;48.570;7.916;2023-05-10T14:33:44;21.80;99.90
10155;DHT22;5118;48.570;7.916;2023-05-10T14:36:20;22.50;99.90
10155;DHT22;5118;48.570;7.916;2023-05-10T14:39:18;22.60;99.90
10155;DHT22;5118;48.570;7.916;2023-05-10T14:41:54;22.30;99.90
10155;DHT22;5118;48.570;7.916;2023-05-10T14:44:30;21.40;99.90
10155;DHT22;5118;48.570;7.916;2023-05-10T14:50:22;19.10;99.90
10155;DHT22;5118;48.570;7.916;2023-05-10T14:53:30;18.50;99.90
10155;DHT22;5118;48.570;7.916;2023-05-10T15:05:05;16.70;99.90
10155;DHT22;5118;48.570;7.916;2023-05-10T15:07:34;16.40;99.90
10155;DHT22;5118;48.570;7.916;2023-05-10T15:10:06;16.30;99.90
10155;DHT22;5118;48.570;7.916;2023-05-10T15:12:34;16.10;99.90
10155;DHT22;5118;48.570;7.916;2023-05-10T15:15:03;16.20;99.90
10155;DHT22;5118;48.570;7.916;2023-05-10T15:17:32;16.40;99.90
10155;DHT22;5118;48.570;7.916;2023-05-10T15:20:01;16.80;99.90
10155;DHT22;5118;48.570;7.916;2023-05-10T15:22:31;17.80;99.90
10155;DHT22;5118;48.570;7.916;2023-05-10T15:25:00;19.20;99.90
10155;DHT22;5118;48.570;7.916;2023-05-10T15:27:31;20.90;99.90
10155;DHT22;5118;48.570;7.916;2023-05-10T15:30:00;22.50;99.90
10155;DHT22;5118;48.570;7.916;2023-05-10T15:32:30;23.50;99.90
10155;DHT22;5118;48.570;7.916;2023-05-10T15:34:59;23.90;99.90
10155;DHT22;5118;48.570;7.916;2023-05-10T15:37:28;23.60;99.90
10155;DHT22;5118;48.570;7.916;2023-05-10T15:39:56;22.90;99.90
10155;DHT22;5118;48.570;7.916;2023-05-10T15:42:34;21.90;99.90
10155;DHT22;5118;48.570;7.916;2023-05-10T15:45:03;21.10;99.90
10155;DHT22;5118;48.570;7.916;2023-05-10T15:47:32;20.70;99.90
10155;DHT22;5118;48.570;7.916;2023-05-10T15:50:04;20.40;99.90
10155;DHT22;5118;48.570;7.916;2023-05-10T15:52:32;20.20;99.90
10155;DHT22;5118;48.570;7.916;2023-05-10T15:55:01;20.00;99.90
10155;DHT22;5118;48.570;7.916;2023-05-10T15:57:30;20.10;99.90
10155;DHT22;5118;48.570;7.916;2023-05-10T16:00:03;20.10;99.90
10155;DHT22;5118;48.570;7.916;2023-05-10T16:02:38;20.00;99.90
10155;DHT22;5118;48.570;7.916;2023-05-10T16:05:08;19.80;99.90
10155;DHT22;5118;48.570;7.916;2023-05-10T16:07:36;19.60;99.90
10155;DHT22;5118;48.570;7.916;2023-05-10T16:10:08;19.30;99.90
10155;DHT22;5118;48.570;7.916;2023-05-10T16:12:37;19.10;99.90
10155;DHT22;5118;48.570;7.916;2023-05-10T16:15:09;18.90;99.90
10155;DHT22;5118;48.570;7.916;2023-05-10T16:17:38;18.80;99.90
10155;DHT22;5118;48.570;7.916;2023-05-10T16:20:08;18.80;99.90
10155;DHT22;5118;48.570;7.916;2023-05-10T16:22:37;19.20;99.90